sensor_id;sensor_type;location;lat;lon;timestamp;temperature;humidity
55135;DHT22;41031;44.750;11.308;2024-02-14T00:01:29;7.30;98.30
55135;DHT22;41031;44.750;11.308;2024-02-14T00:03:57;7.30;98.30
55135;DHT22;41031;44.750;11.308;2024-02-14T00:06:24;7.20;98.40
55135;DHT22;41031;44.750;11.308;2024-02-14T00:08:51;7.20;98.50
55135;DHT22;41031;44.750;11.308;2024-02-14T00:11:19;7.20;98.70
55135;DHT22;41031;44.750;11.308;2024-02-14T00:13:47;7.20;98.80
55135;DHT22;41031;44.750;11.308;2024-02-14T00:16:14;7.20;98.80
55135;DHT22;41031;44.750;11.308;2024-02-14T00:18:41;7.20;98.90
55135;DHT22;41031;44.750;11.308;2024-02-14T00:21:09;7.30;99.00
55135;DHT22;41031;44.750;11.308;2024-02-14T00:23:36;7.20;99.10
55135;DHT22;41031;44.750;11.308;2024-02-14T00:26:03;7.30;99.20
55135;DHT22;41031;44.750;11.308;2024-02-14T00:28:30;7.30;99.30
55135;DHT22;41031;44.750;11.308;2024-02-14T00:30:58;7.30;99.30
55135;DHT22;41031;44.750;11.308;2024-02-14T00:33:26;7.30;99.30
55135;DHT22;41031;44.750;11.308;2024-02-14T00:35:53;7.20;99.20
55135;DHT22;41031;44.750;11.308;2024-02-14T00:38:20;7.20;99.20
55135;DHT22;41031;44.750;11.308;2024-02-14T00:40:47;7.20;99.20
55135;DHT22;41031;44.750;11.308;2024-02-14T00:43:15;7.20;99.20
55135;DHT22;41031;44.750;11.308;2024-02-14T00:45:42;7.20;99.30
55135;DHT22;41031;44.750;11.308;2024-02-14T00:48:09;7.10;99.30
55135;DHT22;41031;44.750;11.308;2024-02-14T00:50:36;7.10;99.30
55135;DHT22;41031;44.750;11.308;2024-02-14T00:53:04;7.10;99.30
55135;DHT22;41031;44.750;11.308;2024-02-14T00:55:32;7.10;99.20
55135;DHT22;41031;44.750;11.308;2024-02-14T00:57:59;7.00;99.20
55135;DHT22;41031;44.750;11.308;2024-02-14T01:00:26;7.00;99.20
55135;DHT22;41031;44.750;11.308;2024-02-14T01:02:53;6.90;99.20
55135;DHT22;41031;44.750;11.308;2024-02-14T01:05:23;6.90;99.20
55135;DHT22;41031;44.750;11.308;2024-02-14T01:07:50;6.90;99.20
55135;DHT22;41031;44.750;11.308;2024-02-14T01:10:18;6.90;99.20
55135;DHT22;41031;44.750;11.308;2024-02-14T01:12:46;6.80;99.20
55135;DHT22;41031;44.750;11.308;2024-02-14T01:15:13;6.80;99.20
55135;DHT22;41031;44.750;11.308;2024-02-14T01:17:40;6.80;99.30
55135;DHT22;41031;44.750;11.308;2024-02-14T01:20:08;6.80;99.30
55135;DHT22;41031;44.750;11.308;2024-02-14T01:22:36;6.80;99.40
55135;DHT22;41031;44.750;11.308;2024-02-14T01:25:04;6.80;99.40
55135;DHT22;41031;44.750;11.308;2024-02-14T01:27:31;6.80;99.40
55135;DHT22;41031;44.750;11.308;2024-02-14T01:29:59;6.80;99.40
55135;DHT22;41031;44.750;11.308;2024-02-14T01:32:26;6.70;99.70
55135;DHT22;41031;44.750;11.308;2024-02-14T01:34:57;6.70;99.40
55135;DHT22;41031;44.750;11.308;2024-02-14T01:37:24;6.70;99.30
55135;DHT22;41031;44.750;11.308;2024-02-14T01:39:51;6.60;99.30
55135;DHT22;41031;44.750;11.308;2024-02-14T01:42:18;6.70;99.40
55135;DHT22;41031;44.750;11.308;2024-02-14T01:44:47;6.60;99.40
55135;DHT22;41031;44.750;11.308;2024-02-14T01:47:14;6.70;99.40
55135;DHT22;41031;44.750;11.308;2024-02-14T01:49:42;6.70;99.40
55135;DHT22;41031;44.750;11.308;2024-02-14T01:52:11;6.60;99.40
55135;DHT22;41031;44.750;11.308;2024-02-14T01:54:39;6.60;99.40
55135;DHT22;41031;44.750;11.308;2024-02-14T01:57:08;6.60;99.40
55135;DHT22;41031;44.750;11.308;2024-02-14T01:59:37;6.60;99.40
55135;DHT22;41031;44.750;11.308;2024-02-14T02:02:05;6.50;99.20
55135;DHT22;41031;44.750;11.308;2024-02-14T02:04:36;6.50;99.30
55135;DHT22;41031;44.750;11.308;2024-02-14T02:07:04;6.50;99.40
55135;DHT22;41031;44.750;11.308;2024-02-14T02:09:31;6.40;99.40
55135;DHT22;41031;44.750;11.308;2024-02-14T02:12:00;6.40;99.50
55135;DHT22;41031;44.750;11.308;2024-02-14T02:14:28;6.50;99.50
55135;DHT22;41031;44.750;11.308;2024-02-14T02:16:56;6.50;99.50
55135;DHT22;41031;44.750;11.308;2024-02-14T02:19:24;6.40;99.70
55135;DHT22;41031;44.750;11.308;2024-02-14T02:21:51;6.40;99.50
55135;DHT22;41031;44.750;11.308;2024-02-14T02:24:19;6.40;99.50
55135;DHT22;41031;44.750;11.308;2024-02-14T02:26:46;6.30;99.40
55135;DHT22;41031;44.750;11.308;2024-02-14T02:29:13;6.30;99.50
55135;DHT22;41031;44.750;11.308;2024-02-14T02:31:42;6.30;99.50
55135;DHT22;41031;44.750;11.308;2024-02-14T02:34:09;6.30;99.50
55135;DHT22;41031;44.750;11.308;2024-02-14T02:36:39;6.20;99.60
55135;DHT22;41031;44.750;11.308;2024-02-14T02:39:08;6.20;99.60
55135;DHT22;41031;44.750;11.308;2024-02-14T02:41:35;6.20;99.60
55135;DHT22;41031;44.750;11.308;2024-02-14T02:44:02;6.20;99.60
55135;DHT22;41031;44.750;11.308;2024-02-14T02:46:32;6.20;99.60
55135;DHT22;41031;44.750;11.308;2024-02-14T02:49:00;6.20;99.60
55135;DHT22;41031;44.750;11.308;2024-02-14T02:51:27;6.20;99.50
55135;DHT22;41031;44.750;11.308;2024-02-14T02:53:54;6.20;99.50
55135;DHT22;41031;44.750;11.308;2024-02-14T02:56:22;6.10;99.50
55135;DHT22;41031;44.750;11.308;2024-02-14T02:58:49;6.20;99.50
55135;DHT22;41031;44.750;11.308;2024-02-14T03:01:16;6.10;99.50
55135;DHT22;41031;44.750;11.308;2024-02-14T03:03:43;6.10;99.60
55135;DHT22;41031;44.750;11.308;2024-02-14T03:06:11;6.10;99.60
55135;DHT22;41031;44.750;11.308;2024-02-14T03:08:39;6.10;99.60
55135;DHT22;41031;44.750;11.308;2024-02-14T03:11:07;6.20;99.70
55135;DHT22;41031;44.750;11.308;2024-02-14T03:13:34;6.10;99.70
55135;DHT22;41031;44.750;11.308;2024-02-14T03:16:03;6.10;99.60
55135;DHT22;41031;44.750;11.308;2024-02-14T03:18:31;6.10;99.50
55135;DHT22;41031;44.750;11.308;2024-02-14T03:20:59;6.10;99.50
55135;DHT22;41031;44.750;11.308;2024-02-14T03:23:26;6.00;99.50
55135;DHT22;41031;44.750;11.308;2024-02-14T03:25:55;6.00;99.60
55135;DHT22;41031;44.750;11.308;2024-02-14T03:28:22;6.00;99.70
55135;DHT22;41031;44.750;11.308;2024-02-14T03:30:50;6.10;99.80
55135;DHT22;41031;44.750;11.308;2024-02-14T03:33:17;6.10;99.90
55135;DHT22;41031;44.750;11.308;2024-02-14T03:35:45;6.10;99.90
55135;DHT22;41031;44.750;11.308;2024-02-14T03:38:12;6.20;99.90
55135;DHT22;41031;44.750;11.308;2024-02-14T03:40:41;6.20;99.90
55135;DHT22;41031;44.750;11.308;2024-02-14T03:43:09;6.20;99.80
55135;DHT22;41031;44.750;11.308;2024-02-14T03:45:38;6.20;99.80
55135;DHT22;41031;44.750;11.308;2024-02-14T03:48:06;6.10;99.80
55135;DHT22;41031;44.750;11.308;2024-02-14T03:50:33;6.20;99.90
55135;DHT22;41031;44.750;11.308;2024-02-14T03:53:01;6.20;99.90
55135;DHT22;41031;44.750;11.308;2024-02-14T03:55:30;6.20;99.90
55135;DHT22;41031;44.750;11.308;2024-02-14T03:57:57;6.30;99.90
55135;DHT22;41031;44.750;11.308;2024-02-14T04:00:25;6.20;99.90
55135;DHT22;41031;44.750;11.308;2024-02-14T04:02:52;6.30;99.90
55135;DHT22;41031;44.750;11.308;2024-02-14T04:05:20;6.20;99.90
55135;DHT22;41031;44.750;11.308;2024-02-14T04:07:47;6.20;99.80
55135;DHT22;41031;44.750;11.308;2024-02-14T04:10:19;6.20;99.70
55135;DHT22;41031;44.750;11.308;2024-02-14T04:12:47;6.10;99.60
55135;DHT22;41031;44.750;11.308;2024-02-14T04:15:14;6.00;99.40
55135;DHT22;41031;44.750;11.308;2024-02-14T04:17:41;6.00;99.40
55135;DHT22;41031;44.750;11.308;2024-02-14T04:20:09;6.00;99.30
55135;DHT22;41031;44.750;11.308;2024-02-14T04:22:36;5.90;99.30
55135;DHT22;41031;44.750;11.308;2024-02-14T04:25:04;5.80;99.30
55135;DHT22;41031;44.750;11.308;2024-02-14T04:27:31;5.80;99.30
55135;DHT22;41031;44.750;11.308;2024-02-14T04:30:01;5.80;99.40
55135;DHT22;41031;44.750;11.308;2024-02-14T04:32:28;5.70;99.30
55135;DHT22;41031;44.750;11.308;2024-02-14T04:34:58;5.70;99.40
55135;DHT22;41031;44.750;11.308;2024-02-14T04:37:27;5.70;99.50
55135;DHT22;41031;44.750;11.308;2024-02-14T04:39:55;5.70;99.40
55135;DHT22;41031;44.750;11.308;2024-02-14T04:42:23;5.70;99.40
55135;DHT22;41031;44.750;11.308;2024-02-14T04:44:51;5.70;99.40
55135;DHT22;41031;44.750;11.308;2024-02-14T04:47:25;5.70;99.40
55135;DHT22;41031;44.750;11.308;2024-02-14T04:49:54;5.70;99.40
55135;DHT22;41031;44.750;11.308;2024-02-14T04:52:22;5.70;99.30
55135;DHT22;41031;44.750;11.308;2024-02-14T04:54:50;5.60;99.30
55135;DHT22;41031;44.750;11.308;2024-02-14T04:57:18;5.60;99.30
55135;DHT22;41031;44.750;11.308;2024-02-14T04:59:47;5.60;99.30
55135;DHT22;41031;44.750;11.308;2024-02-14T05:02:21;5.60;99.20
55135;DHT22;41031;44.750;11.308;2024-02-14T05:04:52;5.60;99.10
55135;DHT22;41031;44.750;11.308;2024-02-14T05:07:20;5.50;99.00
55135;DHT22;41031;44.750;11.308;2024-02-14T05:09:48;5.50;99.10
55135;DHT22;41031;44.750;11.308;2024-02-14T05:12:20;5.40;99.10
55135;DHT22;41031;44.750;11.308;2024-02-14T05:14:57;5.40;99.20
55135;DHT22;41031;44.750;11.308;2024-02-14T05:17:31;5.40;99.30
55135;DHT22;41031;44.750;11.308;2024-02-14T05:20:05;5.40;99.40
55135;DHT22;41031;44.750;11.308;2024-02-14T05:22:37;5.40;99.40
55135;DHT22;41031;44.750;11.308;2024-02-14T05:25:17;5.30;99.30
55135;DHT22;41031;44.750;11.308;2024-02-14T05:27:52;5.30;99.30
55135;DHT22;41031;44.750;11.308;2024-02-14T05:30:20;5.20;99.20
55135;DHT22;41031;44.750;11.308;2024-02-14T05:32:50;5.20;99.10
55135;DHT22;41031;44.750;11.308;2024-02-14T05:35:21;5.10;99.10
55135;DHT22;41031;44.750;11.308;2024-02-14T05:37:52;5.10;99.10
55135;DHT22;41031;44.750;11.308;2024-02-14T05:40:27;5.00;99.20
55135;DHT22;41031;44.750;11.308;2024-02-14T05:42:55;5.00;99.20
55135;DHT22;41031;44.750;11.308;2024-02-14T05:45:25;5.00;99.10
55135;DHT22;41031;44.750;11.308;2024-02-14T05:47:53;4.90;98.90
55135;DHT22;41031;44.750;11.308;2024-02-14T05:50:32;4.90;98.90
55135;DHT22;41031;44.750;11.308;2024-02-14T05:53:10;4.90;98.90
55135;DHT22;41031;44.750;11.308;2024-02-14T05:55:43;4.90;99.00
55135;DHT22;41031;44.750;11.308;2024-02-14T05:58:15;4.90;99.00
55135;DHT22;41031;44.750;11.308;2024-02-14T06:00:47;4.90;99.20
55135;DHT22;41031;44.750;11.308;2024-02-14T06:03:37;5.00;99.30
55135;DHT22;41031;44.750;11.308;2024-02-14T06:06:14;5.00;99.30
55135;DHT22;41031;44.750;11.308;2024-02-14T06:08:49;5.00;99.20
55135;DHT22;41031;44.750;11.308;2024-02-14T06:11:24;5.00;99.10
55135;DHT22;41031;44.750;11.308;2024-02-14T06:13:55;5.00;98.90
55135;DHT22;41031;44.750;11.308;2024-02-14T06:16:31;4.90;98.80
55135;DHT22;41031;44.750;11.308;2024-02-14T06:19:05;4.90;98.90
55135;DHT22;41031;44.750;11.308;2024-02-14T06:21:48;4.90;99.10
55135;DHT22;41031;44.750;11.308;2024-02-14T06:24:16;5.00;99.30
55135;DHT22;41031;44.750;11.308;2024-02-14T06:26:49;5.00;99.30
55135;DHT22;41031;44.750;11.308;2024-02-14T06:29:17;5.00;99.20
55135;DHT22;41031;44.750;11.308;2024-02-14T06:31:49;5.00;99.30
55135;DHT22;41031;44.750;11.308;2024-02-14T06:34:29;5.00;99.30
55135;DHT22;41031;44.750;11.308;2024-02-14T06:36:58;4.90;99.20
55135;DHT22;41031;44.750;11.308;2024-02-14T06:39:32;4.90;99.10
55135;DHT22;41031;44.750;11.308;2024-02-14T06:42:06;4.90;99.00
55135;DHT22;41031;44.750;11.308;2024-02-14T06:44:41;4.80;99.00
55135;DHT22;41031;44.750;11.308;2024-02-14T06:47:15;4.80;99.00
55135;DHT22;41031;44.750;11.308;2024-02-14T06:49:45;4.80;99.00
55135;DHT22;41031;44.750;11.308;2024-02-14T06:52:17;4.80;99.20
55135;DHT22;41031;44.750;11.308;2024-02-14T06:54:48;4.90;99.30
55135;DHT22;41031;44.750;11.308;2024-02-14T06:57:25;4.90;99.30
55135;DHT22;41031;44.750;11.308;2024-02-14T07:00:05;5.00;99.40
55135;DHT22;41031;44.750;11.308;2024-02-14T07:02:39;5.10;99.40
55135;DHT22;41031;44.750;11.308;2024-02-14T07:05:14;5.20;99.20
55135;DHT22;41031;44.750;11.308;2024-02-14T07:07:45;5.30;99.10
55135;DHT22;41031;44.750;11.308;2024-02-14T07:10:18;5.40;99.00
55135;DHT22;41031;44.750;11.308;2024-02-14T07:12:52;5.50;99.10
55135;DHT22;41031;44.750;11.308;2024-02-14T07:15:25;5.60;99.30
55135;DHT22;41031;44.750;11.308;2024-02-14T07:18:00;5.80;98.90
55135;DHT22;41031;44.750;11.308;2024-02-14T07:20:45;5.90;98.80
55135;DHT22;41031;44.750;11.308;2024-02-14T07:23:28;6.10;98.80
55135;DHT22;41031;44.750;11.308;2024-02-14T07:25:56;6.40;98.70
55135;DHT22;41031;44.750;11.308;2024-02-14T07:28:26;6.60;98.40
55135;DHT22;41031;44.750;11.308;2024-02-14T07:30:56;6.70;98.20
55135;DHT22;41031;44.750;11.308;2024-02-14T07:33:24;6.80;98.10
55135;DHT22;41031;44.750;11.308;2024-02-14T07:35:54;7.00;98.10
55135;DHT22;41031;44.750;11.308;2024-02-14T07:38:28;7.20;98.10
55135;DHT22;41031;44.750;11.308;2024-02-14T07:40:58;7.40;98.10
55135;DHT22;41031;44.750;11.308;2024-02-14T07:43:29;7.60;98.00
55135;DHT22;41031;44.750;11.308;2024-02-14T07:45:57;7.90;97.60
55135;DHT22;41031;44.750;11.308;2024-02-14T07:49:04;8.20;97.20
55135;DHT22;41031;44.750;11.308;2024-02-14T07:51:35;8.50;96.70
55135;DHT22;41031;44.750;11.308;2024-02-14T07:54:07;8.80;96.40
55135;DHT22;41031;44.750;11.308;2024-02-14T07:56:41;9.10;96.10
55135;DHT22;41031;44.750;11.308;2024-02-14T07:59:09;9.20;95.90
55135;DHT22;41031;44.750;11.308;2024-02-14T08:01:40;9.30;95.80
55135;DHT22;41031;44.750;11.308;2024-02-14T08:04:15;9.30;95.80
55135;DHT22;41031;44.750;11.308;2024-02-14T08:06:47;9.30;95.90
55135;DHT22;41031;44.750;11.308;2024-02-14T08:09:17;9.30;96.10
55135;DHT22;41031;44.750;11.308;2024-02-14T08:11:46;9.30;96.40
55135;DHT22;41031;44.750;11.308;2024-02-14T08:14:14;9.30;96.50
55135;DHT22;41031;44.750;11.308;2024-02-14T08:16:42;9.30;96.60
55135;DHT22;41031;44.750;11.308;2024-02-14T08:19:10;9.30;96.80
55135;DHT22;41031;44.750;11.308;2024-02-14T08:21:40;9.40;96.90
55135;DHT22;41031;44.750;11.308;2024-02-14T08:24:12;9.50;97.00
55135;DHT22;41031;44.750;11.308;2024-02-14T08:26:40;9.60;97.00
55135;DHT22;41031;44.750;11.308;2024-02-14T08:29:12;9.60;97.00
55135;DHT22;41031;44.750;11.308;2024-02-14T08:31:51;9.70;97.00
55135;DHT22;41031;44.750;11.308;2024-02-14T08:34:20;9.90;97.00
55135;DHT22;41031;44.750;11.308;2024-02-14T08:36:58;10.00;97.00
55135;DHT22;41031;44.750;11.308;2024-02-14T08:39:28;10.10;96.90
55135;DHT22;41031;44.750;11.308;2024-02-14T08:41:56;10.30;96.80
55135;DHT22;41031;44.750;11.308;2024-02-14T08:44:25;10.40;96.60
55135;DHT22;41031;44.750;11.308;2024-02-14T08:47:01;10.50;96.60
55135;DHT22;41031;44.750;11.308;2024-02-14T08:49:29;10.60;96.40
55135;DHT22;41031;44.750;11.308;2024-02-14T08:51:57;10.70;96.40
55135;DHT22;41031;44.750;11.308;2024-02-14T08:54:25;10.90;96.40
55135;DHT22;41031;44.750;11.308;2024-02-14T08:56:58;11.00;96.30
55135;DHT22;41031;44.750;11.308;2024-02-14T08:59:46;11.10;96.10
55135;DHT22;41031;44.750;11.308;2024-02-14T09:02:16;11.20;95.90
55135;DHT22;41031;44.750;11.308;2024-02-14T09:04:45;11.40;95.70
55135;DHT22;41031;44.750;11.308;2024-02-14T09:07:20;11.40;95.20
55135;DHT22;41031;44.750;11.308;2024-02-14T09:09:50;11.50;95.10
55135;DHT22;41031;44.750;11.308;2024-02-14T09:12:21;11.60;94.60
55135;DHT22;41031;44.750;11.308;2024-02-14T09:14:52;11.60;94.40
55135;DHT22;41031;44.750;11.308;2024-02-14T09:17:21;11.60;94.20
55135;DHT22;41031;44.750;11.308;2024-02-14T09:19:52;11.60;94.20
55135;DHT22;41031;44.750;11.308;2024-02-14T09:22:21;11.70;94.40
55135;DHT22;41031;44.750;11.308;2024-02-14T09:24:51;11.80;94.40
55135;DHT22;41031;44.750;11.308;2024-02-14T09:27:23;11.90;94.40
55135;DHT22;41031;44.750;11.308;2024-02-14T09:29:54;11.90;94.10
55135;DHT22;41031;44.750;11.308;2024-02-14T09:32:23;12.00;94.00
55135;DHT22;41031;44.750;11.308;2024-02-14T09:34:51;12.10;93.80
55135;DHT22;41031;44.750;11.308;2024-02-14T09:37:20;12.20;93.70
55135;DHT22;41031;44.750;11.308;2024-02-14T09:39:51;12.20;93.40
55135;DHT22;41031;44.750;11.308;2024-02-14T09:42:28;12.30;93.30
55135;DHT22;41031;44.750;11.308;2024-02-14T09:45:04;12.30;92.90
55135;DHT22;41031;44.750;11.308;2024-02-14T09:47:42;12.30;93.10
55135;DHT22;41031;44.750;11.308;2024-02-14T09:50:12;12.30;93.20
55135;DHT22;41031;44.750;11.308;2024-02-14T09:52:50;12.40;93.40
55135;DHT22;41031;44.750;11.308;2024-02-14T09:55:29;12.50;93.50
55135;DHT22;41031;44.750;11.308;2024-02-14T09:58:03;12.60;93.50
55135;DHT22;41031;44.750;11.308;2024-02-14T10:00:36;12.80;93.50
55135;DHT22;41031;44.750;11.308;2024-02-14T10:03:07;12.90;93.50
55135;DHT22;41031;44.750;11.308;2024-02-14T10:05:45;13.00;93.40
55135;DHT22;41031;44.750;11.308;2024-02-14T10:08:26;13.00;92.90
55135;DHT22;41031;44.750;11.308;2024-02-14T10:11:15;13.00;92.70
55135;DHT22;41031;44.750;11.308;2024-02-14T10:13:47;13.00;92.80
55135;DHT22;41031;44.750;11.308;2024-02-14T10:16:21;13.00;92.90
55135;DHT22;41031;44.750;11.308;2024-02-14T10:18:53;13.10;93.00
55135;DHT22;41031;44.750;11.308;2024-02-14T10:21:22;13.20;93.10
55135;DHT22;41031;44.750;11.308;2024-02-14T10:23:53;13.30;93.00
55135;DHT22;41031;44.750;11.308;2024-02-14T10:26:28;13.30;92.30
55135;DHT22;41031;44.750;11.308;2024-02-14T10:28:59;13.30;92.20
55135;DHT22;41031;44.750;11.308;2024-02-14T10:31:34;13.20;92.10
55135;DHT22;41031;44.750;11.308;2024-02-14T10:34:06;13.20;92.40
55135;DHT22;41031;44.750;11.308;2024-02-14T10:36:36;13.30;92.50
55135;DHT22;41031;44.750;11.308;2024-02-14T10:39:14;13.30;92.50
55135;DHT22;41031;44.750;11.308;2024-02-14T10:41:46;13.40;92.80
55135;DHT22;41031;44.750;11.308;2024-02-14T10:44:18;13.50;92.80
55135;DHT22;41031;44.750;11.308;2024-02-14T10:46:53;13.60;92.80
55135;DHT22;41031;44.750;11.308;2024-02-14T10:49:28;13.70;92.50
55135;DHT22;41031;44.750;11.308;2024-02-14T10:51:58;13.80;92.40
55135;DHT22;41031;44.750;11.308;2024-02-14T10:54:36;13.90;92.30
55135;DHT22;41031;44.750;11.308;2024-02-14T10:57:14;14.00;92.10
55135;DHT22;41031;44.750;11.308;2024-02-14T10:59:46;14.00;91.90
55135;DHT22;41031;44.750;11.308;2024-02-14T11:02:21;14.10;92.00
55135;DHT22;41031;44.750;11.308;2024-02-14T11:04:54;14.20;92.00
55135;DHT22;41031;44.750;11.308;2024-02-14T11:07:23;14.40;91.90
55135;DHT22;41031;44.750;11.308;2024-02-14T11:10:13;14.50;91.60
55135;DHT22;41031;44.750;11.308;2024-02-14T11:12:43;14.70;91.50
55135;DHT22;41031;44.750;11.308;2024-02-14T11:15:17;14.80;91.40
55135;DHT22;41031;44.750;11.308;2024-02-14T11:17:47;15.00;91.00
55135;DHT22;41031;44.750;11.308;2024-02-14T11:20:35;15.00;90.80
55135;DHT22;41031;44.750;11.308;2024-02-14T11:23:05;15.20;90.80
55135;DHT22;41031;44.750;11.308;2024-02-14T11:26:00;15.30;90.80
55135;DHT22;41031;44.750;11.308;2024-02-14T11:28:41;15.40;90.70
55135;DHT22;41031;44.750;11.308;2024-02-14T11:31:16;15.50;90.50
55135;DHT22;41031;44.750;11.308;2024-02-14T11:33:49;15.50;90.20
55135;DHT22;41031;44.750;11.308;2024-02-14T11:36:23;15.60;90.10
55135;DHT22;41031;44.750;11.308;2024-02-14T11:38:54;15.60;89.90
55135;DHT22;41031;44.750;11.308;2024-02-14T11:41:28;15.60;89.30
55135;DHT22;41031;44.750;11.308;2024-02-14T11:44:04;15.70;89.00
55135;DHT22;41031;44.750;11.308;2024-02-14T11:46:34;15.80;88.70
55135;DHT22;41031;44.750;11.308;2024-02-14T11:49:06;15.90;88.30
55135;DHT22;41031;44.750;11.308;2024-02-14T11:51:34;15.90;87.40
55135;DHT22;41031;44.750;11.308;2024-02-14T11:54:06;15.90;87.50
55135;DHT22;41031;44.750;11.308;2024-02-14T11:56:38;16.00;87.60
55135;DHT22;41031;44.750;11.308;2024-02-14T11:59:12;16.00;87.20
55135;DHT22;41031;44.750;11.308;2024-02-14T12:01:40;16.10;86.40
55135;DHT22;41031;44.750;11.308;2024-02-14T12:04:10;16.20;85.70
55135;DHT22;41031;44.750;11.308;2024-02-14T12:06:40;16.20;84.90
55135;DHT22;41031;44.750;11.308;2024-02-14T12:09:15;16.20;84.60
55135;DHT22;41031;44.750;11.308;2024-02-14T12:11:44;16.20;85.10
55135;DHT22;41031;44.750;11.308;2024-02-14T12:14:17;16.30;85.40
55135;DHT22;41031;44.750;11.308;2024-02-14T12:16:46;16.30;84.50
55135;DHT22;41031;44.750;11.308;2024-02-14T12:19:15;16.40;84.30
55135;DHT22;41031;44.750;11.308;2024-02-14T12:21:45;16.40;84.30
55135;DHT22;41031;44.750;11.308;2024-02-14T12:24:17;16.50;83.70
55135;DHT22;41031;44.750;11.308;2024-02-14T12:26:46;16.50;83.60
55135;DHT22;41031;44.750;11.308;2024-02-14T12:29:18;16.50;83.10
55135;DHT22;41031;44.750;11.308;2024-02-14T12:31:49;16.50;83.40
55135;DHT22;41031;44.750;11.308;2024-02-14T12:34:20;16.50;83.60
55135;DHT22;41031;44.750;11.308;2024-02-14T12:36:52;16.60;83.60
55135;DHT22;41031;44.750;11.308;2024-02-14T12:39:21;16.70;83.60
55135;DHT22;41031;44.750;11.308;2024-02-14T12:41:51;16.90;83.30
55135;DHT22;41031;44.750;11.308;2024-02-14T12:44:21;16.90;82.70
55135;DHT22;41031;44.750;11.308;2024-02-14T12:46:54;16.90;81.60
55135;DHT22;41031;44.750;11.308;2024-02-14T12:49:26;16.90;82.00
55135;DHT22;41031;44.750;11.308;2024-02-14T12:51:58;16.90;81.50
55135;DHT22;41031;44.750;11.308;2024-02-14T12:54:26;16.90;81.90
55135;DHT22;41031;44.750;11.308;2024-02-14T12:56:56;17.00;82.30
55135;DHT22;41031;44.750;11.308;2024-02-14T12:59:25;17.00;81.60
55135;DHT22;41031;44.750;11.308;2024-02-14T13:02:00;17.00;79.40
55135;DHT22;41031;44.750;11.308;2024-02-14T13:04:28;17.00;80.30
55135;DHT22;41031;44.750;11.308;2024-02-14T13:07:03;17.00;80.70
55135;DHT22;41031;44.750;11.308;2024-02-14T13:09:35;17.10;81.00
55135;DHT22;41031;44.750;11.308;2024-02-14T13:12:07;17.10;80.30
55135;DHT22;41031;44.750;11.308;2024-02-14T13:14:38;17.10;77.70
55135;DHT22;41031;44.750;11.308;2024-02-14T13:17:18;17.00;77.60
55135;DHT22;41031;44.750;11.308;2024-02-14T13:19:52;16.90;79.10
55135;DHT22;41031;44.750;11.308;2024-02-14T13:22:23;16.90;80.70
55135;DHT22;41031;44.750;11.308;2024-02-14T13:24:51;16.90;80.60
55135;DHT22;41031;44.750;11.308;2024-02-14T13:27:19;17.00;80.70
55135;DHT22;41031;44.750;11.308;2024-02-14T13:29:50;17.00;79.90
55135;DHT22;41031;44.750;11.308;2024-02-14T13:32:26;17.00;79.50
55135;DHT22;41031;44.750;11.308;2024-02-14T13:35:01;17.00;79.00
55135;DHT22;41031;44.750;11.308;2024-02-14T13:37:36;16.90;79.40
55135;DHT22;41031;44.750;11.308;2024-02-14T13:40:06;16.80;79.70
55135;DHT22;41031;44.750;11.308;2024-02-14T13:42:39;16.70;79.50
55135;DHT22;41031;44.750;11.308;2024-02-14T13:45:12;16.70;79.70
55135;DHT22;41031;44.750;11.308;2024-02-14T13:47:50;16.70;80.40
55135;DHT22;41031;44.750;11.308;2024-02-14T13:50:24;16.70;80.80
55135;DHT22;41031;44.750;11.308;2024-02-14T13:52:53;16.70;80.70
55135;DHT22;41031;44.750;11.308;2024-02-14T13:55:25;16.60;80.50
55135;DHT22;41031;44.750;11.308;2024-02-14T13:57:57;16.70;81.00
55135;DHT22;41031;44.750;11.308;2024-02-14T14:00:29;16.70;80.90
55135;DHT22;41031;44.750;11.308;2024-02-14T14:03:09;16.60;80.50
55135;DHT22;41031;44.750;11.308;2024-02-14T14:05:45;16.60;80.00
55135;DHT22;41031;44.750;11.308;2024-02-14T14:08:13;16.50;79.60
55135;DHT22;41031;44.750;11.308;2024-02-14T14:10:42;16.60;80.10
55135;DHT22;41031;44.750;11.308;2024-02-14T14:13:17;16.60;80.10
55135;DHT22;41031;44.750;11.308;2024-02-14T14:15:46;16.50;80.00
55135;DHT22;41031;44.750;11.308;2024-02-14T14:18:35;16.40;79.20
55135;DHT22;41031;44.750;11.308;2024-02-14T14:21:06;16.40;77.90
55135;DHT22;41031;44.750;11.308;2024-02-14T14:23:42;16.30;77.60
55135;DHT22;41031;44.750;11.308;2024-02-14T14:26:16;16.30;77.60
55135;DHT22;41031;44.750;11.308;2024-02-14T14:28:44;16.20;77.60
55135;DHT22;41031;44.750;11.308;2024-02-14T14:31:19;16.20;77.50
55135;DHT22;41031;44.750;11.308;2024-02-14T14:34:10;16.20;78.20
55135;DHT22;41031;44.750;11.308;2024-02-14T14:36:41;16.10;79.30
55135;DHT22;41031;44.750;11.308;2024-02-14T14:39:10;16.10;79.10
55135;DHT22;41031;44.750;11.308;2024-02-14T14:41:48;16.00;79.30
55135;DHT22;41031;44.750;11.308;2024-02-14T14:44:22;15.90;79.80
55135;DHT22;41031;44.750;11.308;2024-02-14T14:46:50;15.90;79.30
55135;DHT22;41031;44.750;11.308;2024-02-14T14:49:23;15.90;78.40
55135;DHT22;41031;44.750;11.308;2024-02-14T14:51:59;15.80;78.20
55135;DHT22;41031;44.750;11.308;2024-02-14T14:54:29;15.80;79.30
55135;DHT22;41031;44.750;11.308;2024-02-14T14:57:01;15.80;77.60
55135;DHT22;41031;44.750;11.308;2024-02-14T14:59:35;15.80;78.00
55135;DHT22;41031;44.750;11.308;2024-02-14T15:02:06;15.70;77.60
55135;DHT22;41031;44.750;11.308;2024-02-14T15:04:36;15.70;78.30
55135;DHT22;41031;44.750;11.308;2024-02-14T15:07:11;15.70;79.10
55135;DHT22;41031;44.750;11.308;2024-02-14T15:09:49;15.70;79.30
55135;DHT22;41031;44.750;11.308;2024-02-14T15:12:21;15.60;79.40
55135;DHT22;41031;44.750;11.308;2024-02-14T15:14:56;15.60;79.50
55135;DHT22;41031;44.750;11.308;2024-02-14T15:17:26;15.60;79.80
55135;DHT22;41031;44.750;11.308;2024-02-14T15:19:57;15.50;80.20
55135;DHT22;41031;44.750;11.308;2024-02-14T15:22:35;15.60;80.50
55135;DHT22;41031;44.750;11.308;2024-02-14T15:25:09;15.50;80.40
55135;DHT22;41031;44.750;11.308;2024-02-14T15:27:44;15.50;80.90
55135;DHT22;41031;44.750;11.308;2024-02-14T15:30:24;15.50;80.00
55135;DHT22;41031;44.750;11.308;2024-02-14T15:33:12;15.50;80.00
55135;DHT22;41031;44.750;11.308;2024-02-14T15:35:55;15.40;80.80
55135;DHT22;41031;44.750;11.308;2024-02-14T15:38:30;15.40;81.90
55135;DHT22;41031;44.750;11.308;2024-02-14T15:41:02;15.40;82.90
55135;DHT22;41031;44.750;11.308;2024-02-14T15:43:35;15.30;83.50
55135;DHT22;41031;44.750;11.308;2024-02-14T15:46:03;15.20;84.10
55135;DHT22;41031;44.750;11.308;2024-02-14T15:48:40;15.20;84.60
55135;DHT22;41031;44.750;11.308;2024-02-14T15:51:19;15.10;84.90